sensor_id;sensor_type;location;lat;lon;timestamp;temperature;humidity
5200;DHT22;2619;47.868;11.892;2023-02-22T00:01:20;1.00;99.90
5200;DHT22;2619;47.868;11.892;2023-02-22T00:04:06;1.10;99.90
5200;DHT22;2619;47.868;11.892;2023-02-22T00:06:32;1.10;99.90
5200;DHT22;2619;47.868;11.892;2023-02-22T00:08:58;0.90;99.90
5200;DHT22;2619;47.868;11.892;2023-02-22T00:11:24;0.70;99.90
5200;DHT22;2619;47.868;11.892;2023-02-22T00:13:50;0.60;99.90
5200;DHT22;2619;47.868;11.892;2023-02-22T00:16:18;0.60;99.90
5200;DHT22;2619;47.868;11.892;2023-02-22T00:18:44;0.50;99.90
5200;DHT22;2619;47.868;11.892;2023-02-22T00:21:11;0.30;99.90
5200;DHT22;2619;47.868;11.892;2023-02-22T00:23:39;0.30;99.90
5200;DHT22;2619;47.868;11.892;2023-02-22T00:26:07;0.30;99.90
5200;DHT22;2619;47.868;11.892;2023-02-22T00:28:35;0.30;99.90
5200;DHT22;2619;47.868;11.892;2023-02-22T00:31:02;0.20;99.90
5200;DHT22;2619;47.868;11.892;2023-02-22T00:33:30;0.20;99.90
5200;DHT22;2619;47.868;11.892;2023-02-22T00:35:55;0.20;99.90
5200;DHT22;2619;47.868;11.892;2023-02-22T00:38:21;0.10;99.90
5200;DHT22;2619;47.868;11.892;2023-02-22T00:40:46;0.10;99.90
5200;DHT22;2619;47.868;11.892;2023-02-22T00:43:13;0.00;99.90
5200;DHT22;2619;47.868;11.892;2023-02-22T00:45:39;0.00;99.90
5200;DHT22;2619;47.868;11.892;2023-02-22T00:48:05;-0.10;99.90
5200;DHT22;2619;47.868;11.892;2023-02-22T00:50:32;0.00;99.90
5200;DHT22;2619;47.868;11.892;2023-02-22T00:52:59;0.20;99.90
5200;DHT22;2619;47.868;11.892;2023-02-22T00:55:35;0.20;99.90
5200;DHT22;2619;47.868;11.892;2023-02-22T00:58:02;0.00;99.90
5200;DHT22;2619;47.868;11.892;2023-02-22T01:00:31;0.00;99.90
5200;DHT22;2619;47.868;11.892;2023-02-22T01:02:57;-0.10;99.90
5200;DHT22;2619;47.868;11.892;2023-02-22T01:05:27;0.00;99.90
5200;DHT22;2619;47.868;11.892;2023-02-22T01:07:55;0.00;99.90
5200;DHT22;2619;47.868;11.892;2023-02-22T01:10:23;-0.10;99.90
5200;DHT22;2619;47.868;11.892;2023-02-22T01:12:50;-0.10;99.90
5200;DHT22;2619;47.868;11.892;2023-02-22T01:15:18;-0.20;99.90
5200;DHT22;2619;47.868;11.892;2023-02-22T01:17:48;-0.40;99.90
5200;DHT22;2619;47.868;11.892;2023-02-22T01:20:15;-0.40;99.90
5200;DHT22;2619;47.868;11.892;2023-02-22T01:22:43;-0.40;99.90
5200;DHT22;2619;47.868;11.892;2023-02-22T01:25:11;-0.40;99.90
5200;DHT22;2619;47.868;11.892;2023-02-22T01:27:37;-0.30;99.90
5200;DHT22;2619;47.868;11.892;2023-02-22T01:30:05;-0.40;99.90
5200;DHT22;2619;47.868;11.892;2023-02-22T01:32:36;-0.50;99.90
5200;DHT22;2619;47.868;11.892;2023-02-22T01:35:04;-0.40;99.90
5200;DHT22;2619;47.868;11.892;2023-02-22T01:37:30;-0.40;99.90
5200;DHT22;2619;47.868;11.892;2023-02-22T01:39:56;-0.50;99.90
5200;DHT22;2619;47.868;11.892;2023-02-22T01:42:22;-0.50;99.90
5200;DHT22;2619;47.868;11.892;2023-02-22T01:47:52;-0.50;99.90
5200;DHT22;2619;47.868;11.892;2023-02-22T01:50:18;-0.50;99.90
5200;DHT22;2619;47.868;11.892;2023-02-22T01:52:44;-0.50;99.90
5200;DHT22;2619;47.868;11.892;2023-02-22T01:55:10;-0.30;99.90
5200;DHT22;2619;47.868;11.892;2023-02-22T01:57:36;-0.30;99.90
5200;DHT22;2619;47.868;11.892;2023-02-22T02:00:09;-0.40;99.90
5200;DHT22;2619;47.868;11.892;2023-02-22T02:02:44;-0.50;99.90
5200;DHT22;2619;47.868;11.892;2023-02-22T02:05:11;-0.60;99.90
5200;DHT22;2619;47.868;11.892;2023-02-22T02:07:37;-0.50;99.90
5200;DHT22;2619;47.868;11.892;2023-02-22T02:10:07;-0.40;99.90
5200;DHT22;2619;47.868;11.892;2023-02-22T02:12:39;-0.40;99.90
5200;DHT22;2619;47.868;11.892;2023-02-22T02:15:31;-0.60;99.90
5200;DHT22;2619;47.868;11.892;2023-02-22T02:18:00;-0.60;99.90
5200;DHT22;2619;47.868;11.892;2023-02-22T02:20:51;-0.60;99.90
5200;DHT22;2619;47.868;11.892;2023-02-22T02:37:11;-0.70;99.90
5200;DHT22;2619;47.868;11.892;2023-02-22T02:39:50;-0.80;99.90
5200;DHT22;2619;47.868;11.892;2023-02-22T02:42:22;-0.80;99.90
5200;DHT22;2619;47.868;11.892;2023-02-22T02:44:57;-0.70;99.90
5200;DHT22;2619;47.868;11.892;2023-02-22T02:47:31;-0.60;99.90
5200;DHT22;2619;47.868;11.892;2023-02-22T02:50:01;-0.50;99.90
5200;DHT22;2619;47.868;11.892;2023-02-22T02:52:28;-0.60;99.90
5200;DHT22;2619;47.868;11.892;2023-02-22T02:54:56;-0.80;99.90
5200;DHT22;2619;47.868;11.892;2023-02-22T02:57:22;-0.80;99.90
5200;DHT22;2619;47.868;11.892;2023-02-22T02:59:49;-0.80;99.90
5200;DHT22;2619;47.868;11.892;2023-02-22T03:05:20;-0.60;99.90
5200;DHT22;2619;47.868;11.892;2023-02-22T03:13:20;-0.60;99.90
5200;DHT22;2619;47.868;11.892;2023-02-22T03:18:28;-0.70;99.90
5200;DHT22;2619;47.868;11.892;2023-02-22T03:29:15;-0.80;99.90
5200;DHT22;2619;47.868;11.892;2023-02-22T03:31:47;-0.70;99.90
5200;DHT22;2619;47.868;11.892;2023-02-22T03:34:21;-0.70;99.90
5200;DHT22;2619;47.868;11.892;2023-02-22T03:36:56;-0.70;99.90
5200;DHT22;2619;47.868;11.892;2023-02-22T03:39:25;-0.80;99.90
5200;DHT22;2619;47.868;11.892;2023-02-22T03:41:59;-0.90;99.90
5200;DHT22;2619;47.868;11.892;2023-02-22T03:44:27;-1.00;99.90
5200;DHT22;2619;47.868;11.892;2023-02-22T03:46:55;-1.00;99.90
5200;DHT22;2619;47.868;11.892;2023-02-22T03:49:46;-1.10;99.90
5200;DHT22;2619;47.868;11.892;2023-02-22T03:52:13;-1.00;99.90
5200;DHT22;2619;47.868;11.892;2023-02-22T03:54:39;-0.90;99.90
5200;DHT22;2619;47.868;11.892;2023-02-22T03:59:40;-1.20;99.90
5200;DHT22;2619;47.868;11.892;2023-02-22T04:02:06;-1.20;99.90
5200;DHT22;2619;47.868;11.892;2023-02-22T04:04:31;-1.20;99.90
5200;DHT22;2619;47.868;11.892;2023-02-22T04:06:57;-1.10;99.90
5200;DHT22;2619;47.868;11.892;2023-02-22T04:09:22;-1.00;99.90
5200;DHT22;2619;47.868;11.892;2023-02-22T04:11:48;-1.10;99.90
5200;DHT22;2619;47.868;11.892;2023-02-22T04:14:14;-1.10;99.90
5200;DHT22;2619;47.868;11.892;2023-02-22T04:16:40;-1.00;99.90
5200;DHT22;2619;47.868;11.892;2023-02-22T04:19:05;-1.10;99.90
5200;DHT22;2619;47.868;11.892;2023-02-22T04:21:31;-1.20;99.90
5200;DHT22;2619;47.868;11.892;2023-02-22T04:23:57;-1.20;99.90
5200;DHT22;2619;47.868;11.892;2023-02-22T04:26:23;-1.10;99.90
5200;DHT22;2619;47.868;11.892;2023-02-22T04:28:48;-1.00;99.90
5200;DHT22;2619;47.868;11.892;2023-02-22T04:31:15;-1.00;99.90
5200;DHT22;2619;47.868;11.892;2023-02-22T04:33:41;-1.10;99.90
5200;DHT22;2619;47.868;11.892;2023-02-22T04:36:08;-1.20;99.90
5200;DHT22;2619;47.868;11.892;2023-02-22T04:38:33;-1.20;99.90
5200;DHT22;2619;47.868;11.892;2023-02-22T04:40:59;-1.10;99.90
5200;DHT22;2619;47.868;11.892;2023-02-22T04:43:25;-1.10;99.90
5200;DHT22;2619;47.868;11.892;2023-02-22T04:45:50;-1.10;99.90
5200;DHT22;2619;47.868;11.892;2023-02-22T04:48:16;-1.10;99.90
5200;DHT22;2619;47.868;11.892;2023-02-22T04:50:41;-1.20;99.90
5200;DHT22;2619;47.868;11.892;2023-02-22T04:53:07;-1.20;99.90
5200;DHT22;2619;47.868;11.892;2023-02-22T04:55:33;-1.10;99.90
5200;DHT22;2619;47.868;11.892;2023-02-22T04:57:59;-1.10;99.90
5200;DHT22;2619;47.868;11.892;2023-02-22T05:00:24;-1.20;99.90
5200;DHT22;2619;47.868;11.892;2023-02-22T05:02:50;-1.20;99.90
5200;DHT22;2619;47.868;11.892;2023-02-22T05:05:18;-1.00;99.90
5200;DHT22;2619;47.868;11.892;2023-02-22T05:07:46;-0.90;99.90
5200;DHT22;2619;47.868;11.892;2023-02-22T05:10:12;-1.00;99.90
5200;DHT22;2619;47.868;11.892;2023-02-22T05:12:38;-1.00;99.90
5200;DHT22;2619;47.868;11.892;2023-02-22T05:15:05;-1.00;99.90
5200;DHT22;2619;47.868;11.892;2023-02-22T05:17:32;-1.10;99.90
5200;DHT22;2619;47.868;11.892;2023-02-22T05:19:58;-1.20;99.90
5200;DHT22;2619;47.868;11.892;2023-02-22T05:22:23;-1.00;99.90
5200;DHT22;2619;47.868;11.892;2023-02-22T05:24:49;-0.80;99.90
5200;DHT22;2619;47.868;11.892;2023-02-22T05:27:17;-0.80;99.90
5200;DHT22;2619;47.868;11.892;2023-02-22T05:29:43;-0.80;99.90
5200;DHT22;2619;47.868;11.892;2023-02-22T05:32:09;-0.90;99.90
5200;DHT22;2619;47.868;11.892;2023-02-22T05:34:36;-1.00;99.90
5200;DHT22;2619;47.868;11.892;2023-02-22T05:37:02;-0.90;99.90
5200;DHT22;2619;47.868;11.892;2023-02-22T05:39:28;-1.00;99.90
5200;DHT22;2619;47.868;11.892;2023-02-22T05:41:54;-1.10;99.90
5200;DHT22;2619;47.868;11.892;2023-02-22T05:44:20;-1.20;99.90
5200;DHT22;2619;47.868;11.892;2023-02-22T05:46:45;-1.20;99.90
5200;DHT22;2619;47.868;11.892;2023-02-22T05:49:11;-1.10;99.90
5200;DHT22;2619;47.868;11.892;2023-02-22T05:51:36;-1.20;99.90
5200;DHT22;2619;47.868;11.892;2023-02-22T05:54:02;-1.30;99.90
5200;DHT22;2619;47.868;11.892;2023-02-22T05:56:29;-1.40;99.90
5200;DHT22;2619;47.868;11.892;2023-02-22T05:58:55;-1.50;99.90
5200;DHT22;2619;47.868;11.892;2023-02-22T06:01:21;-1.50;99.90
5200;DHT22;2619;47.868;11.892;2023-02-22T06:03:48;-1.40;99.90
5200;DHT22;2619;47.868;11.892;2023-02-22T06:06:15;-1.40;99.90
5200;DHT22;2619;47.868;11.892;2023-02-22T06:08:41;-1.30;99.90
5200;DHT22;2619;47.868;11.892;2023-02-22T06:11:07;-1.20;99.90
5200;DHT22;2619;47.868;11.892;2023-02-22T06:13:34;-1.00;99.90
5200;DHT22;2619;47.868;11.892;2023-02-22T06:16:00;-1.00;99.90
5200;DHT22;2619;47.868;11.892;2023-02-22T06:18:26;-1.00;99.90
5200;DHT22;2619;47.868;11.892;2023-02-22T06:20:54;-1.00;99.90
5200;DHT22;2619;47.868;11.892;2023-02-22T06:23:20;-1.00;99.90
5200;DHT22;2619;47.868;11.892;2023-02-22T06:25:45;-1.10;99.90
5200;DHT22;2619;47.868;11.892;2023-02-22T06:28:11;-1.10;99.90
5200;DHT22;2619;47.868;11.892;2023-02-22T06:30:37;-1.00;99.90
5200;DHT22;2619;47.868;11.892;2023-02-22T06:33:02;-0.90;99.90
5200;DHT22;2619;47.868;11.892;2023-02-22T06:35:28;-0.90;99.90
5200;DHT22;2619;47.868;11.892;2023-02-22T06:37:53;-0.90;99.90
5200;DHT22;2619;47.868;11.892;2023-02-22T06:40:19;-0.80;99.90
5200;DHT22;2619;47.868;11.892;2023-02-22T06:42:47;-0.80;99.90
5200;DHT22;2619;47.868;11.892;2023-02-22T06:45:15;-0.70;99.90
5200;DHT22;2619;47.868;11.892;2023-02-22T06:47:41;-0.50;99.90
5200;DHT22;2619;47.868;11.892;2023-02-22T06:50:26;-0.40;99.90
5200;DHT22;2619;47.868;11.892;2023-02-22T06:52:53;-0.30;99.90
5200;DHT22;2619;47.868;11.892;2023-02-22T06:55:21;0.00;99.90
5200;DHT22;2619;47.868;11.892;2023-02-22T06:57:47;0.20;99.90
5200;DHT22;2619;47.868;11.892;2023-02-22T07:00:16;0.40;99.90
5200;DHT22;2619;47.868;11.892;2023-02-22T07:02:42;0.60;99.90
5200;DHT22;2619;47.868;11.892;2023-02-22T07:05:10;0.60;99.90
5200;DHT22;2619;47.868;11.892;2023-02-22T07:07:37;0.70;99.90
5200;DHT22;2619;47.868;11.892;2023-02-22T07:10:04;0.90;99.90
5200;DHT22;2619;47.868;11.892;2023-02-22T07:12:30;1.00;99.90
5200;DHT22;2619;47.868;11.892;2023-02-22T07:14:56;1.20;99.90
5200;DHT22;2619;47.868;11.892;2023-02-22T07:17:21;1.30;99.90
5200;DHT22;2619;47.868;11.892;2023-02-22T07:19:47;1.30;99.90
5200;DHT22;2619;47.868;11.892;2023-02-22T07:22:12;1.50;99.90
5200;DHT22;2619;47.868;11.892;2023-02-22T07:24:38;1.50;99.90
5200;DHT22;2619;47.868;11.892;2023-02-22T07:27:05;1.60;99.90
5200;DHT22;2619;47.868;11.892;2023-02-22T07:29:31;1.70;99.90
5200;DHT22;2619;47.868;11.892;2023-02-22T07:31:57;1.80;99.90
5200;DHT22;2619;47.868;11.892;2023-02-22T07:34:23;1.90;99.90
5200;DHT22;2619;47.868;11.892;2023-02-22T07:36:49;2.00;99.90
5200;DHT22;2619;47.868;11.892;2023-02-22T07:39:14;2.10;99.90
5200;DHT22;2619;47.868;11.892;2023-02-22T07:41:40;2.20;99.90
5200;DHT22;2619;47.868;11.892;2023-02-22T07:44:06;2.40;99.90
5200;DHT22;2619;47.868;11.892;2023-02-22T07:46:31;2.60;99.90
5200;DHT22;2619;47.868;11.892;2023-02-22T07:48:58;2.70;99.90
5200;DHT22;2619;47.868;11.892;2023-02-22T07:51:24;2.80;99.90
5200;DHT22;2619;47.868;11.892;2023-02-22T07:53:49;2.90;99.90
5200;DHT22;2619;47.868;11.892;2023-02-22T07:56:15;3.10;99.90
5200;DHT22;2619;47.868;11.892;2023-02-22T07:58:42;3.10;99.90
5200;DHT22;2619;47.868;11.892;2023-02-22T08:01:08;3.10;99.90
5200;DHT22;2619;47.868;11.892;2023-02-22T08:03:34;3.10;99.90
5200;DHT22;2619;47.868;11.892;2023-02-22T08:06:01;3.30;99.90
5200;DHT22;2619;47.868;11.892;2023-02-22T08:08:27;3.30;99.90
5200;DHT22;2619;47.868;11.892;2023-02-22T08:10:53;3.40;99.90
5200;DHT22;2619;47.868;11.892;2023-02-22T08:13:20;3.50;99.90
5200;DHT22;2619;47.868;11.892;2023-02-22T08:15:46;3.60;99.90
5200;DHT22;2619;47.868;11.892;2023-02-22T08:18:15;3.80;99.90
5200;DHT22;2619;47.868;11.892;2023-02-22T08:20:42;3.90;99.90
5200;DHT22;2619;47.868;11.892;2023-02-22T08:23:09;4.00;99.90
5200;DHT22;2619;47.868;11.892;2023-02-22T08:25:35;4.10;99.90
5200;DHT22;2619;47.868;11.892;2023-02-22T08:28:06;4.20;99.90
5200;DHT22;2619;47.868;11.892;2023-02-22T08:30:35;4.30;99.90
5200;DHT22;2619;47.868;11.892;2023-02-22T08:33:02;4.40;99.90
5200;DHT22;2619;47.868;11.892;2023-02-22T08:35:30;4.50;99.90
5200;DHT22;2619;47.868;11.892;2023-02-22T08:38:02;4.70;99.90
5200;DHT22;2619;47.868;11.892;2023-02-22T08:40:30;4.90;99.90
5200;DHT22;2619;47.868;11.892;2023-02-22T08:42:56;5.20;99.90
5200;DHT22;2619;47.868;11.892;2023-02-22T08:45:22;5.30;99.90
5200;DHT22;2619;47.868;11.892;2023-02-22T08:47:48;5.50;99.90
5200;DHT22;2619;47.868;11.892;2023-02-22T08:50:18;5.60;99.90
5200;DHT22;2619;47.868;11.892;2023-02-22T08:52:44;5.80;99.90
5200;DHT22;2619;47.868;11.892;2023-02-22T08:55:10;5.90;99.90
5200;DHT22;2619;47.868;11.892;2023-02-22T08:57:35;6.10;99.90
5200;DHT22;2619;47.868;11.892;2023-02-22T09:00:03;6.20;99.90
5200;DHT22;2619;47.868;11.892;2023-02-22T09:02:29;6.40;99.90
5200;DHT22;2619;47.868;11.892;2023-02-22T09:04:55;6.70;99.90
5200;DHT22;2619;47.868;11.892;2023-02-22T09:07:20;6.90;99.90
5200;DHT22;2619;47.868;11.892;2023-02-22T09:09:46;7.00;99.90
5200;DHT22;2619;47.868;11.892;2023-02-22T09:12:11;7.10;99.90
5200;DHT22;2619;47.868;11.892;2023-02-22T09:14:37;7.30;99.90
5200;DHT22;2619;47.868;11.892;2023-02-22T09:17:03;7.40;99.90
5200;DHT22;2619;47.868;11.892;2023-02-22T09:19:28;7.60;99.90
5200;DHT22;2619;47.868;11.892;2023-02-22T09:21:56;7.80;99.90
5200;DHT22;2619;47.868;11.892;2023-02-22T09:24:22;8.10;99.90
5200;DHT22;2619;47.868;11.892;2023-02-22T09:26:48;8.10;99.90
5200;DHT22;2619;47.868;11.892;2023-02-22T09:29:22;8.10;99.90
5200;DHT22;2619;47.868;11.892;2023-02-22T09:31:50;8.20;99.90
5200;DHT22;2619;47.868;11.892;2023-02-22T09:34:18;8.40;99.90
5200;DHT22;2619;47.868;11.892;2023-02-22T09:36:45;8.40;99.90
5200;DHT22;2619;47.868;11.892;2023-02-22T09:39:13;8.50;99.90
5200;DHT22;2619;47.868;11.892;2023-02-22T09:42:02;8.60;99.90
5200;DHT22;2619;47.868;11.892;2023-02-22T09:47:21;8.90;99.90
5200;DHT22;2619;47.868;11.892;2023-02-22T09:50:03;9.00;99.90
5200;DHT22;2619;47.868;11.892;2023-02-22T09:52:38;9.10;99.90
5200;DHT22;2619;47.868;11.892;2023-02-22T09:57:45;9.30;99.90
5200;DHT22;2619;47.868;11.892;2023-02-22T10:00:19;9.40;99.90
5200;DHT22;2619;47.868;11.892;2023-02-22T10:02:50;9.60;99.90
5200;DHT22;2619;47.868;11.892;2023-02-22T10:05:21;9.70;99.90
5200;DHT22;2619;47.868;11.892;2023-02-22T10:08:00;9.80;99.90
5200;DHT22;2619;47.868;11.892;2023-02-22T10:10:33;9.90;99.90
5200;DHT22;2619;47.868;11.892;2023-02-22T10:13:35;10.10;99.90
5200;DHT22;2619;47.868;11.892;2023-02-22T10:24:56;10.50;99.90
5200;DHT22;2619;47.868;11.892;2023-02-22T10:27:36;10.70;99.90
5200;DHT22;2619;47.868;11.892;2023-02-22T10:30:19;10.90;99.90
5200;DHT22;2619;47.868;11.892;2023-02-22T10:32:48;10.80;99.90
5200;DHT22;2619;47.868;11.892;2023-02-22T10:35:24;10.90;99.90
5200;DHT22;2619;47.868;11.892;2023-02-22T10:38:01;10.90;99.90
5200;DHT22;2619;47.868;11.892;2023-02-22T10:40:31;10.90;99.90
5200;DHT22;2619;47.868;11.892;2023-02-22T10:43:15;11.00;99.90
5200;DHT22;2619;47.868;11.892;2023-02-22T10:45:41;11.00;99.90
5200;DHT22;2619;47.868;11.892;2023-02-22T10:48:10;11.30;99.90
5200;DHT22;2619;47.868;11.892;2023-02-22T10:50:41;11.50;99.90
5200;DHT22;2619;47.868;11.892;2023-02-22T10:53:08;11.50;99.90
5200;DHT22;2619;47.868;11.892;2023-02-22T10:55:34;11.60;99.90
5200;DHT22;2619;47.868;11.892;2023-02-22T10:58:07;11.80;99.90
5200;DHT22;2619;47.868;11.892;2023-02-22T11:00:41;12.10;99.90
5200;DHT22;2619;47.868;11.892;2023-02-22T11:03:21;12.30;99.90
5200;DHT22;2619;47.868;11.892;2023-02-22T11:05:48;12.50;99.90
5200;DHT22;2619;47.868;11.892;2023-02-22T11:10:47;12.80;99.90
5200;DHT22;2619;47.868;11.892;2023-02-22T11:13:28;12.80;99.90
5200;DHT22;2619;47.868;11.892;2023-02-22T11:16:19;13.00;99.90
5200;DHT22;2619;47.868;11.892;2023-02-22T11:18:47;13.20;99.90
5200;DHT22;2619;47.868;11.892;2023-02-22T11:21:20;13.40;99.90
5200;DHT22;2619;47.868;11.892;2023-02-22T11:23:47;13.40;99.90
5200;DHT22;2619;47.868;11.892;2023-02-22T11:26:19;13.50;99.90
5200;DHT22;2619;47.868;11.892;2023-02-22T11:28:47;13.50;98.30
5200;DHT22;2619;47.868;11.892;2023-02-22T11:31:20;13.70;98.10
5200;DHT22;2619;47.868;11.892;2023-02-22T11:34:00;13.80;95.10
5200;DHT22;2619;47.868;11.892;2023-02-22T11:36:46;13.90;96.60
5200;DHT22;2619;47.868;11.892;2023-02-22T11:39:28;13.90;95.70
5200;DHT22;2619;47.868;11.892;2023-02-22T11:41:57;14.00;95.50
5200;DHT22;2619;47.868;11.892;2023-02-22T11:44:31;14.20;96.10
5200;DHT22;2619;47.868;11.892;2023-02-22T11:46:59;14.10;96.20
5200;DHT22;2619;47.868;11.892;2023-02-22T11:49:34;14.20;95.80
5200;DHT22;2619;47.868;11.892;2023-02-22T11:52:26;14.20;95.60
5200;DHT22;2619;47.868;11.892;2023-02-22T12:00:14;14.10;94.90
5200;DHT22;2619;47.868;11.892;2023-02-22T12:09:21;14.60;93.50
5200;DHT22;2619;47.868;11.892;2023-02-22T12:19:47;15.00;92.50
5200;DHT22;2619;47.868;11.892;2023-02-22T12:22:26;15.20;92.30
5200;DHT22;2619;47.868;11.892;2023-02-22T12:24:56;15.30;92.50
5200;DHT22;2619;47.868;11.892;2023-02-22T12:27:42;15.30;91.80
5200;DHT22;2619;47.868;11.892;2023-02-22T12:30:29;15.50;92.90
5200;DHT22;2619;47.868;11.892;2023-02-22T12:33:03;15.50;92.10
5200;DHT22;2619;47.868;11.892;2023-02-22T12:35:36;15.50;92.10
5200;DHT22;2619;47.868;11.892;2023-02-22T12:38:19;15.60;91.70
5200;DHT22;2619;47.868;11.892;2023-02-22T12:43:51;15.70;91.40
5200;DHT22;2619;47.868;11.892;2023-02-22T12:46:36;15.70;90.30
5200;DHT22;2619;47.868;11.892;2023-02-22T12:49:37;15.80;90.40
5200;DHT22;2619;47.868;11.892;2023-02-22T12:54:47;15.60;91.00
5200;DHT22;2619;47.868;11.892;2023-02-22T13:00:00;15.60;90.80
5200;DHT22;2619;47.868;11.892;2023-02-22T13:02:37;15.40;90.90
5200;DHT22;2619;47.868;11.892;2023-02-22T13:05:05;15.50;92.50
5200;DHT22;2619;47.868;11.892;2023-02-22T13:07:50;15.70;92.10
5200;DHT22;2619;47.868;11.892;2023-02-22T13:18:29;16.00;93.50
5200;DHT22;2619;47.868;11.892;2023-02-22T13:21:08;16.10;94.10
5200;DHT22;2619;47.868;11.892;2023-02-22T13:31:34;15.70;92.80
5200;DHT22;2619;47.868;11.892;2023-02-22T13:37:11;14.90;92.40
5200;DHT22;2619;47.868;11.892;2023-02-22T13:45:55;15.50;95.20
5200;DHT22;2619;47.868;11.892;2023-02-22T13:54:03;15.70;92.40
5200;DHT22;2619;47.868;11.892;2023-02-22T13:56:31;15.90;93.80
5200;DHT22;2619;47.868;11.892;2023-02-22T13:59:00;16.00;95.10
5200;DHT22;2619;47.868;11.892;2023-02-22T14:09:54;15.50;92.30
5200;DHT22;2619;47.868;11.892;2023-02-22T14:17:46;15.40;93.50
5200;DHT22;2619;47.868;11.892;2023-02-22T14:22:42;15.30;94.00
5200;DHT22;2619;47.868;11.892;2023-02-22T14:27:52;15.70;92.70
5200;DHT22;2619;47.868;11.892;2023-02-22T14:30:27;15.90;92.90
5200;DHT22;2619;47.868;11.892;2023-02-22T14:32:53;15.90;90.10
5200;DHT22;2619;47.868;11.892;2023-02-22T14:35:19;15.80;91.20
5200;DHT22;2619;47.868;11.892;2023-02-22T14:37:59;15.80;91.50
5200;DHT22;2619;47.868;11.892;2023-02-22T14:40:31;15.90;93.20
5200;DHT22;2619;47.868;11.892;2023-02-22T14:43:15;16.00;92.20
5200;DHT22;2619;47.868;11.892;2023-02-22T14:45:52;15.90;92.90
5200;DHT22;2619;47.868;11.892;2023-02-22T14:50:46;16.10;95.00
5200;DHT22;2619;47.868;11.892;2023-02-22T14:55:58;16.20;95.70
5200;DHT22;2619;47.868;11.892;2023-02-22T14:58:43;16.10;95.60
5200;DHT22;2619;47.868;11.892;2023-02-22T15:01:32;15.90;95.10
5200;DHT22;2619;47.868;11.892;2023-02-22T15:04:25;15.60;95.10
5200;DHT22;2619;47.868;11.892;2023-02-22T15:06:52;15.40;95.40
5200;DHT22;2619;47.868;11.892;2023-02-22T15:09:22;15.30;94.70
5200;DHT22;2619;47.868;11.892;2023-02-22T15:11:54;14.90;95.00
5200;DHT22;2619;47.868;11.892;2023-02-22T15:14:36;14.70;95.80
5200;DHT22;2619;47.868;11.892;2023-02-22T15:17:21;14.30;95.50
5200;DHT22;2619;47.868;11.892;2023-02-22T15:19:50;14.00;95.80
5200;DHT22;2619;47.868;11.892;2023-02-22T15:22:23;13.70;96.00
5200;DHT22;2619;47.868;11.892;2023-02-22T15:27:23;13.10;96.00
5200;DHT22;2619;47.868;11.892;2023-02-22T15:29:56;12.70;96.60
5200;DHT22;2619;47.868;11.892;2023-02-22T15:32:30;12.40;96.70
5200;DHT22;2619;47.868;11.892;2023-02-22T15:35:18;12.20;96.10
5200;DHT22;2619;47.868;11.892;2023-02-22T15:37:45;12.00;96.40
5200;DHT22;2619;47.868;11.892;2023-02-22T15:40:17;11.80;96.70
5200;DHT22;2619;47.868;11.892;2023-02-22T15:42:44;11.60;96.90
5200;DHT22;2619;47.868;11.892;2023-02-22T15:45:17;11.30;97.70
5200;DHT22;2619;47.868;11.892;2023-02-22T15:47:44;11.00;98.20
5200;DHT22;2619;47.868;11.892;2023-02-22T15:50:30;10.80;98.50
5200;DHT22;2619;47.868;11.892;2023-02-22T15:53:26;10.60;98.20
5200;DHT22;2619;47.868;11.892;2023-02-22T15:55:58;10.50;97.90
5200;DHT22;2619;47.868;11.892;2023-02-22T15:58:25;10.40;98.10
5200;DHT22;2619;47.868;11.892;2023-02-22T16:01:01;10.40;98.00
5200;DHT22;2619;47.868;11.892;2023-02-22T16:03:51;10.30;98.30
5200;DHT22;2619;47.868;11.892;2023-02-22T16:06:38;10.20;98.60
5200;DHT22;2619;47.868;11.892;2023-02-22T16:09:08;10.10;98.60
5200;DHT22;2619;47.868;11.892;2023-02-22T16:11:38;10.10;98.50
5200;DHT22;2619;47.868;11.892;2023-02-22T16:14:29;9.80;99.90
5200;DHT22;2619;47.868;11.892;2023-02-22T16:19:40;9.70;99.40
5200;DHT22;2619;47.868;11.892;2023-02-22T16:22:19;9.70;99.90
5200;DHT22;2619;47.868;11.892;2023-02-22T16:24:47;9.60;99.60
5200;DHT22;2619;47.868;11.892;2023-02-22T16:27:18;9.60;99.50
5200;DHT22;2619;47.868;11.892;2023-02-22T16:30:22;9.50;99.50
5200;DHT22;2619;47.868;11.892;2023-02-22T16:32:45;9.40;99.60
5200;DHT22;2619;47.868;11.892;2023-02-22T16:35:11;9.40;99.80
5200;DHT22;2619;47.868;11.892;2023-02-22T16:37:47;9.30;99.90
5200;DHT22;2619;47.868;11.892;2023-02-22T16:40:40;9.10;99.80
5200;DHT22;2619;47.868;11.892;2023-02-22T16:43:14;9.10;99.90
5200;DHT22;2619;47.868;11.892;2023-02-22T16:45:41;9.00;99.90
5200;DHT22;2619;47.868;11.892;2023-02-22T16:48:19;8.80;99.90
5200;DHT22;2619;47.868;11.892;2023-02-22T16:50:46;8.60;99.90
5200;DHT22;2619;47.868;11.892;2023-02-22T16:53:12;8.60;99.90
5200;DHT22;2619;47.868;11.892;2023-02-22T16:55:41;8.50;99.90
5200;DHT22;2619;47.868;11.892;2023-02-22T16:58:10;8.40;99.90
5200;DHT22;2619;47.868;11.892;2023-02-22T17:00:36;8.50;99.90
5200;DHT22;2619;47.868;11.892;2023-02-22T17:03:03;8.50;99.90
5200;DHT22;2619;47.868;11.892;2023-02-22T17:05:31;8.40;99.90
5200;DHT22;2619;47.868;11.892;2023-02-22T17:08:00;8.30;99.90
5200;DHT22;2619;47.868;11.892;2023-02-22T17:10:26;8.20;99.90
5200;DHT22;2619;47.868;11.892;2023-02-22T17:12:53;8.10;99.90
5200;DHT22;2619;47.868;11.892;2023-02-22T17:15:26;8.00;99.90
5200;DHT22;2619;47.868;11.892;2023-02-22T17:17:53;7.90;99.90
5200;DHT22;2619;47.868;11.892;2023-02-22T17:20:19;7.90;99.90
5200;DHT22;2619;47.868;11.892;2023-02-22T17:22:58;7.90;99.90
5200;DHT22;2619;47.868;11.892;2023-02-22T17:25:28;7.80;99.90
5200;DHT22;2619;47.868;11.892;2023-02-22T17:27:54;7.70;99.90
5200;DHT22;2619;47.868;11.892;2023-02-22T17:30:20;7.60;99.90
5200;DHT22;2619;47.868;11.892;2023-02-22T17:32:49;7.50;99.90
5200;DHT22;2619;47.868;11.892;2023-02-22T17:35:19;7.50;99.90
5200;DHT22;2619;47.868;11.892;2023-02-22T17:37:50;7.40;99.90
5200;DHT22;2619;47.868;11.892;2023-02-22T17:40:16;7.40;99.90
5200;DHT22;2619;47.868;11.892;2023-02-22T17:42:43;7.30;99.90
5200;DHT22;2619;47.868;11.892;2023-02-22T17:45:10;7.30;99.90
5200;DHT22;2619;47.868;11.892;2023-02-22T17:47:41;7.20;99.90
5200;DHT22;2619;47.868;11.892;2023-02-22T17:50:10;7.20;99.90
5200;DHT22;2619;47.868;11.892;2023-02-22T17:52:36;7.30;99.90
5200;DHT22;2619;47.868;11.892;2023-02-22T17:55:02;7.20;99.90
5200;DHT22;2619;47.868;11.892;2023-02-22T17:57:27;7.20;99.90
5200;DHT22;2619;47.868;11.892;2023-02-22T17:59:54;7.10;99.90
5200;DHT22;2619;47.868;11.892;2023-02-22T18:02:20;6.90;99.90
5200;DHT22;2619;47.868;11.892;2023-02-22T18:04:45;6.90;99.90
5200;DHT22;2619;47.868;11.892;2023-02-22T18:07:11;6.80;99.90
5200;DHT22;2619;47.868;11.892;2023-02-22T18:09:38;6.70;99.90
5200;DHT22;2619;47.868;11.892;2023-02-22T18:12:06;6.70;99.90
5200;DHT22;2619;47.868;11.892;2023-02-22T18:14:32;6.70;99.90
5200;DHT22;2619;47.868;11.892;2023-02-22T18:16:58;6.60;99.90
5200;DHT22;2619;47.868;11.892;2023-02-22T18:19:25;6.60;99.90
5200;DHT22;2619;47.868;11.892;2023-02-22T18:21:53;6.50;99.90
5200;DHT22;2619;47.868;11.892;2023-02-22T18:24:23;6.40;99.90
5200;DHT22;2619;47.868;11.892;2023-02-22T18:26:48;6.30;99.90
5200;DHT22;2619;47.868;11.892;2023-02-22T18:29:14;6.30;99.90
5200;DHT22;2619;47.868;11.892;2023-02-22T18:31:40;6.20;99.90
5200;DHT22;2619;47.868;11.892;2023-02-22T18:34:05;6.20;99.90